Naples, NY

11:06 AM EST on December 20, 2014 (GMT -0500)
Powell Hill, South Bristol | Change Station
CLOSE
Current Station
Personal Weather Station
Location: Naples, NY
Elevation: 1401 ft
Nearby Weather Stations

Elev 1401 ft 42.68 °N, 77.38 °W | Updated 3 seconds ago

Overcast
Overcast
25.7 °F
Feels Like 26 °F
N
2.0
Wind Variable Wind from WNW

Today
High -- | Low -- °F
--% Chance of Precip.
Yesterday
High -- | Low -- °F
Precip. -- in
7:35 AM 4:38 PM
Waning Crescent, 3% visible
Pressure 30.35 in
Visibility 10.0 miles
Clouds Overcast 2400 ft
Windchill 26 °F
Dew Point 20 °F
Humidity 80%
Rainfall 0.00 in
Snow Depth Not available.
UV 0.6 out of 12
Pollen .10 out of 12
Air Quality Not available.
Flu Activity Not available.
METAR KDSV 201554Z AUTO VRB03KT 10SM OVC024 M02/M07 A3029 RMK AO2 SLP276 T10171067 $

More Conditions Fewer Conditions

Pressure 30.35 in
Visibility 10.0 miles
Clouds Overcast 2400 ft
Windchill 26 °F
Dew Point 20 °F
Humidity 80%
Rainfall 0.00 in
Snow Depth Not available.
UV 0.6 out of 12
Pollen .10 out of 12
Air Quality Not available.
Flu Activity Not available.
METAR KDSV 201554Z AUTO VRB03KT 10SM OVC024 M02/M07 A3029 RMK AO2 SLP276 T10171067 $

More Conditions Fewer Conditions

10-Day Weather Forecast

Almanac

Astronomy

Dec. 20, 2014 Rise Set
Actual Time
Civil Twilight
Nautical Twilight
Astronomical Twilight
Moon
Length of Visible Light
Length of Day
Tomorrow will be .
, % of the Moon is Illuminated

Today's Extremes

State Highs State Lows

Community

WunderPhotos

Upload Photos

1,779,212 photos uploaded!

WunderBlogs® & News

Nearby

Air Quality

  Air Quality AQ Index Pollutant
Not available.

Snow Depth

Station Depth Elevation

Earthquake Activity

City Distance Mag. Time & Date
Minimum magnitude displayed is 2.5.

Coastal Water Temperatures

Place Temperature

Nearby Weather Stations